Airfield :
LOGIN :

Register | Disclaimer

   EN    FR    IT 

 










Legend :    VFR   Marginal VFR   IFR   Intensive IFR   Very Intensive IFR
Visi :
Ceiling :
>= 8 km
>= 3000ft
5 to 8 km
1000 to 3000 ft
1500m to 5 km
500 to 1000 ft
800 to 1500m
200 to 500 ft
< 800m
< 200 ft
Symbols :   Thunderstorms  Fog  Heavy snow  Heavy precipitations  Wind > 20 kt
SIGMETs :     Misc.  Thunderstorms  Icing  Turbulence  Mountain Waves  Volcanic Ashes






- Airport Elevation : 0 ft


ETEB - Ansbach Army Heliport

CURRENT METAR :
  • 182255Z AUTO 02005KT 9999 CLR 21/11 A3016 RMK AO2 SLP218 T02080111 402630143 $

EXPIRED METARs :
  • 182155Z AUTO 02005KT 9999 FEW060 22/11 A3016 RMK AO2 SLP218 T02160110 $
  • 182055Z AUTO 02004KT 9999 FEW065 23/11 A3017 RMK AO2 SLPNO T02290113 50005 $
  • 181955Z AUTO 05005KT 9999 CLR 23/11 A3017 RMK AO2 SLP223 T02300107 $
  • 181855Z AUTO 02005KT 5000 HZ CLR 25/11 A3016 RMK AO2 SLP219 T02450111 $
  • 181755Z AUTO 01003KT 5000 HZ CLR 26/10 A3015 RMK AO2 SLP217 60000 T02560102 10263 20241 56004 $

TAF TAF ETEB
Valid from the 18 at 15:00 until the 19 at 21:00 UTC


181500Z 1815/1921 07006KT 9999 SCT040 SCT060 BKN230 QNH3016INS
BECMG 1902/1903 07006KT 8000 BR SCT025 OVC040 QNH3015INS
BECMG 1909/1910 VRB06KT 9999 NSW SCT028 BKN040 BKN160 QNH3005INS TX27/1915Z TN17/1904Z



MET'MAP, your aeronautical weather chart ! - Copyright ORBIFLY December 2007 - Disclaimer

ORBIFLY MET'MAP TEAM :

Programming & Development : Alexandra Zaïnal
Original concept : Baudouin d'Aumeries
Technical & hardware support : Manuel Goepfert
Assistance : Marc-Olivier Méhu




SOURCES & CREDITS :

   NOAA